Susanville, CA

1:36 AM PDT on August 22, 2014 (GMT -0700)
Johnstonville | Change Station
CLOSE
Current Station
Personal Weather Station
Location: Susanville, CA
Elevation: 4150 ft
Nearby Weather Stations

Elev 4150 ft 40.38 °N, 120.60 °W | Updated 1 second ago

Clear
Clear
65.5 °F
Feels Like 65.5 °F
N
7.4
Wind Variable Wind from NW
Gusts 9.0 mph

Today
High -- | Low -- °F
--% Chance of Precip.
Yesterday
High -- | Low -- °F
Precip. -- in
6:20 AM 7:49 PM
Waning Crescent, 9% visible
Pressure 30.09 in
Visibility 10.0 miles
Clouds Clear
Dew Point 39 °F
Humidity 38%
Rainfall 0.00 in
Snow Depth Not available.
UV 0 out of 12
Pollen 7.30 out of 12
Air Quality Not available.
Flu Activity Not available.
METAR KRTS 220815Z AUTO 30005KT 10SM CLR 15/00 A3009 RMK AO2

More Conditions Fewer Conditions

Pressure 30.09 in
Visibility 10.0 miles
Clouds Clear
Dew Point 39 °F
Humidity 38%
Rainfall 0.00 in
Snow Depth Not available.
UV 0 out of 12
Pollen 7.30 out of 12
Air Quality Not available.
Flu Activity Not available.
METAR KRTS 220815Z AUTO 30005KT 10SM CLR 15/00 A3009 RMK AO2

More Conditions Fewer Conditions

10-Day Weather Forecast

Almanac

Astronomy

Aug. 22, 2014 Rise Set
Actual Time 6:20 AM PDT 7:49 PM PDT
Civil Twilight 5:51 AM PDT 8:18 PM PDT
Nautical Twilight 5:17 AM PDT 8:52 PM PDT
Astronomical Twilight 4:40 AM PDT 9:29 PM PDT
Moon 3:47 AM PDT 6:01 PM PDT
Length of Visible Light 14h 26m
Length of Day
13h 29m
Tomorrow will be 2m 27s shorter.
Waning Crescent, 9% of the Moon is Illuminated
Today
Waning Crescent
Aug 25
New
Sep 2
First Quarter
Sep 8
Full
Sep 15
Last Quarter

Today's Extremes

State Highs State Lows

Community

WunderPhotos

Upload Photos

1,746,144 photos uploaded!

Nearby

Snow Depth

Station Depth Elevation
Adin Mountain 0 in 6200 ft
Independence Camp 0 in 7000 ft
CSS Lab 0 in 6900 ft
Cedar Pass 1 in 7100 ft
Tahoe City Cross 0 in 6750 ft

Earthquake Activity

City Distance Mag. Time & Date
No recent earthquake activity has been reported nearby.
Minimum magnitude displayed is 2.5.

Coastal Water Temperatures

Place Temperature
No Stations Reporting

Nearby Weather Stations